Time;durP1;ratioP1;P1;durP2;ratioP2;P2;SDS_P1;SDS_P2;PMS_P1;PMS_P2;Temp;Humidity;BMP_temperature;BMP_pressure;BME280_temperature;BME280_humidity;BME280_pressure;Samples;Min_cycle;Max_cycle;Signal;HPM_P1;HPM_P2
2021/05/26 00:01:02;;;;;;;13.68;9.68;;;;;;;28.44;67.52;100767.56;5067299;27;66389;-39
2021/05/26 00:03:33;;;;;;;20.10;10.57;;;;;;;28.47;67.31;100778.81;5069334;27;69399;-38
2021/05/26 00:06:04;;;;;;;15.65;10.32;;;;;;;28.47;68.31;100772.56;5069225;27;65314;-37
2021/05/26 00:08:37;;;;;;;22.17;10.83;;;;;;;28.25;67.66;100742.19;5074156;28;69763;-36
2021/05/26 00:11:11;;;;;;;20.38;10.60;;;;;;;28.24;67.63;100735.16;5068155;27;66017;-43
2021/05/26 00:13:44;;;;;;;29.70;13.80;;;;;;;28.52;68.43;100787.09;5070913;28;70471;-37
2021/05/26 00:16:15;;;;;;;31.48;15.63;;;;;;;28.51;68.68;100780.03;5074170;27;65442;-37
2021/05/26 00:18:47;;;;;;;31.60;15.63;;;;;;;28.53;69.37;100779.84;5077324;27;70429;-36
2021/05/26 00:21:18;;;;;;;29.13;15.63;;;;;;;28.61;69.30;100778.78;5070455;27;65153;-36
2021/05/26 00:23:49;;;;;;;30.27;15.50;;;;;;;28.71;69.45;100796.22;5074496;27;69346;-37
2021/05/26 00:26:20;;;;;;;28.65;14.60;;;;;;;28.78;69.58;100806.19;5077178;28;65287;-38
2021/05/26 00:28:52;;;;;;;30.67;14.38;;;;;;;28.41;69.79;100736.41;5074773;28;69954;-38
2021/05/26 00:31:24;;;;;;;25.23;13.07;;;;;;;28.84;70.14;100805.38;5071879;27;66194;-37
2021/05/26 00:33:55;;;;;;;29.10;12.88;;;;;;;28.85;70.43;100807.84;5072859;27;69877;-36
2021/05/26 00:36:26;;;;;;;27.25;12.65;;;;;;;28.89;70.43;100813.66;5074901;27;66122;-36
2021/05/26 00:38:56;;;;;;;20.42;12.80;;;;;;;28.89;70.25;100814.53;5070522;28;69988;-36
2021/05/26 00:41:31;;;;;;;24.20;11.10;;;;;;;28.88;70.26;100823.63;5069090;28;66302;-37
2021/05/26 00:44:02;;;;;;;17.20;11.43;;;;;;;28.85;70.43;100818.66;5076434;27;68989;-34
2021/05/26 00:46:42;;;;;;;16.00;11.07;;;;;;;28.42;70.91;100762.41;5073032;28;65726;-34
2021/05/26 00:49:14;;;;;;;15.23;10.55;;;;;;;28.69;70.92;100802.88;5074220;27;69936;-35
2021/05/26 00:51:45;;;;;;;15.70;10.80;;;;;;;28.68;70.59;100812.03;5079103;27;65488;-34
2021/05/26 00:54:16;;;;;;;14.95;10.73;;;;;;;28.82;70.52;100824.47;5074884;27;70076;-34
2021/05/26 00:56:49;;;;;;;17.92;11.02;;;;;;;28.78;70.62;100817.84;5073704;28;64853;-34
2021/05/26 00:59:21;;;;;;;16.40;11.52;;;;;;;28.85;70.69;100829.47;5075647;28;69292;-35
2021/05/26 01:01:52;;;;;;;22.17;16.17;;;;;;;28.85;70.80;100818.66;5070062;28;66688;-34
2021/05/26 01:04:23;;;;;;;23.80;21.27;;;;;;;28.89;70.71;100825.31;5067656;28;70217;-34
2021/05/26 01:07:03;;;;;;;27.75;24.77;;;;;;;28.94;70.68;100830.06;5076563;27;66210;-34
2021/05/26 01:09:34;;;;;;;30.58;26.52;;;;;;;28.96;70.53;100826.13;5071744;27;70166;-34
2021/05/26 01:12:06;;;;;;;33.10;29.60;;;;;;;28.98;70.74;100831.34;5065736;28;66104;-33
2021/05/26 01:14:37;;;;;;;36.38;32.92;;;;;;;28.98;70.66;100827.81;5066127;28;70253;-33
2021/05/26 01:17:12;;;;;;;39.83;35.55;;;;;;;28.93;69.96;100825.72;5068587;28;66482;-34
2021/05/26 01:19:44;;;;;;;45.47;40.47;;;;;;;28.82;70.32;100802.06;5075178;27;69941;-35
2021/05/26 01:22:15;;;;;;;50.53;41.20;;;;;;;29.02;70.04;100829.88;5067268;27;66321;-34
2021/05/26 01:24:47;;;;;;;53.87;47.07;;;;;;;28.68;69.87;100776.94;5065614;28;69057;-35
2021/05/26 01:27:18;;;;;;;54.65;48.17;;;;;;;29.06;69.81;100835.69;5069819;27;66189;-35
2021/05/26 01:29:50;;;;;;;56.65;50.60;;;;;;;29.07;70.37;100840.91;5071840;27;70016;-34
2021/05/26 01:32:24;;;;;;;62.00;55.30;;;;;;;28.81;70.38;100798.53;5070115;28;65532;-34
2021/05/26 01:34:55;;;;;;;63.50;53.80;;;;;;;29.11;70.21;100849.41;5067851;27;69996;-34
2021/05/26 01:37:32;;;;;;;60.85;53.22;;;;;;;29.00;69.46;100837.34;5070057;28;65387;-34
2021/05/26 01:40:04;;;;;;;62.05;55.08;;;;;;;29.12;69.94;100851.09;5068355;28;69139;-34
2021/05/26 01:42:35;;;;;;;64.53;57.33;;;;;;;29.15;69.42;100854.19;5068809;28;65108;-34
2021/05/26 01:45:10;;;;;;;64.13;56.92;;;;;;;28.60;69.89;100766.34;5067592;27;69465;-35
2021/05/26 01:47:43;;;;;;;64.80;56.22;;;;;;;29.18;69.08;100861.06;5072750;28;65854;-34
2021/05/26 01:50:21;;;;;;;69.85;59.28;;;;;;;29.20;69.50;100875.19;5069193;27;70210;-35
2021/05/26 01:53:04;;;;;;;73.18;62.13;;;;;;;28.87;69.04;100822.00;5068426;28;66110;-35
2021/05/26 01:55:38;;;;;;;72.13;62.07;;;;;;;28.95;69.66;100835.28;5072277;28;69006;-35
2021/05/26 01:58:18;;;;;;;;;;;;;;;29.00;69.88;100868.91;5073187;27;65799;-35
2021/05/26 02:00:53;;;;;;;74.53;64.10;;;;;;;29.05;68.83;100850.25;5071780;28;69769;-35
2021/05/26 02:03:25;;;;;;;77.85;64.25;;;;;;;29.25;68.95;100875.38;5075795;27;66259;-34
2021/05/26 02:05:57;;;;;;;79.45;65.18;;;;;;;29.30;69.29;100880.16;5073703;27;70188;-34
2021/05/26 02:08:29;;;;;;;71.38;63.60;;;;;;;29.25;68.84;100878.06;5074878;27;67213;-35
2021/05/26 02:13:52;;;;;;;71.45;63.60;;;;;;;29.32;69.16;100892.41;5085503;27;65769;-34
2021/05/26 02:16:28;;;;;;;73.97;61.53;;;;;;;29.34;68.98;100909.25;5071742;27;71002;-35
2021/05/26 02:19:00;;;;;;;69.00;58.78;;;;;;;29.34;68.60;100897.63;5072287;27;66123;-34
2021/05/26 02:21:31;;;;;;;69.32;56.65;;;;;;;29.36;69.11;100896.38;5069419;28;69818;-35
2021/05/26 02:24:02;;;;;;;63.27;54.03;;;;;;;29.29;68.96;100890.13;5072152;27;66081;-35
2021/05/26 02:26:35;;;;;;;59.17;52.55;;;;;;;29.38;68.83;100905.09;5076028;27;70026;-34
2021/05/26 02:29:06;;;;;;;60.95;50.50;;;;;;;29.39;68.35;100901.38;5064312;28;65441;-35
2021/05/26 02:31:40;;;;;;;56.25;49.45;;;;;;;29.41;68.83;100901.13;5068490;28;70258;-35
2021/05/26 02:34:15;;;;;;;55.38;46.88;;;;;;;29.39;68.47;100906.75;5068273;28;65498;-34
2021/05/26 02:36:49;;;;;;;53.42;46.05;;;;;;;29.42;68.35;100915.47;5073278;27;70016;-35
2021/05/26 02:39:24;;;;;;;50.78;44.65;;;;;;;29.42;68.77;100904.66;5066202;28;65983;-35
2021/05/26 02:41:54;;;;;;;47.22;42.13;;;;;;;29.44;68.33;100905.28;5066715;27;69264;-34
2021/05/26 02:44:26;;;;;;;46.35;41.28;;;;;;;29.44;68.77;100916.09;5069186;27;66603;-34
2021/05/26 02:46:57;;;;;;;49.42;40.13;;;;;;;29.46;68.68;100900.50;5071514;27;70130;-34
2021/05/26 02:49:29;;;;;;;42.25;37.83;;;;;;;29.47;68.55;100911.09;5067157;28;66073;-34
2021/05/26 02:52:02;;;;;;;48.47;37.92;;;;;;;29.49;68.21;100897.38;5072402;27;70580;-35
2021/05/26 02:54:34;;;;;;;40.25;34.60;;;;;;;29.46;68.05;100900.50;5065957;28;66340;-34
2021/05/26 02:57:05;;;;;;;42.47;35.67;;;;;;;29.54;67.94;100908.41;5067544;27;70201;-36
2021/05/26 03:00:08;;;;;;;44.30;34.17;;;;;;;29.24;68.22;100854.81;5072932;27;65305;-35
2021/05/26 03:02:50;;;;;;;35.88;32.03;;;;;;;29.56;68.24;100917.09;5070347;27;70543;-36
2021/05/26 03:05:26;;;;;;;37.20;31.02;;;;;;;29.59;68.31;100908.59;5070728;28;65909;-35
2021/05/26 03:07:58;;;;;;;34.92;30.30;;;;;;;29.60;68.03;100912.97;5068473;28;69308;-35
2021/05/26 03:10:36;;;;;;;32.15;28.80;;;;;;;29.62;68.26;100910.88;5070876;27;65737;-35
2021/05/26 03:13:33;;;;;;;30.63;27.63;;;;;;;29.63;68.16;100896.34;5061775;27;70327;-35
2021/05/26 03:16:08;;;;;;;;;;;;;;;29.39;68.27;100901.38;5068874;28;66392;-35
2021/05/26 03:18:41;;;;;;;28.80;25.92;;;;;;;29.62;67.45;100900.06;5068892;28;69593;-36
2021/05/26 03:21:13;;;;;;;27.67;24.98;;;;;;;29.55;67.80;100873.03;5062022;28;65503;-35
2021/05/26 03:24:02;;;;;;;29.08;24.98;;;;;;;29.68;67.71;100890.31;5070046;28;70059;-35
2021/05/26 03:26:38;;;;;;;29.13;24.95;;;;;;;29.71;67.65;100882.59;5071680;27;65314;-35
2021/05/26 03:29:09;;;;;;;26.65;23.38;;;;;;;29.72;67.34;100878.03;5069274;27;69253;-34
2021/05/26 03:31:46;;;;;;;26.33;23.63;;;;;;;29.75;67.93;100883.00;5064359;28;66039;-35
2021/05/26 03:34:16;;;;;;;;;;;;;;;29.49;68.23;100873.88;5063601;27;68912;-36
2021/05/26 03:36:48;;;;;;;24.50;22.30;;;;;;;29.71;67.31;100882.59;5059209;28;66267;-35
2021/05/26 03:39:20;;;;;;;32.83;22.77;;;;;;;29.76;67.63;100874.69;5067796;28;70272;-35
2021/05/26 03:41:54;;;;;;;23.23;21.08;;;;;;;29.76;67.15;100869.28;5066886;28;66758;-35
2021/05/26 03:44:25;;;;;;;24.83;22.35;;;;;;;29.66;67.68;100858.06;5068489;27;71613;-34
2021/05/26 03:46:56;;;;;;;;;;;;;;;29.56;67.58;100871.16;5066831;27;66067;-36
2021/05/26 03:49:31;;;;;;;23.35;21.13;;;;;;;29.79;67.25;100874.25;5064532;28;69359;-35
2021/05/26 03:52:07;;;;;;;25.13;21.17;;;;;;;29.84;67.43;100874.47;5065669;28;65749;-36
2021/05/26 03:54:42;;;;;;;24.85;22.48;;;;;;;29.87;67.45;100880.50;5074060;28;70160;-35
2021/05/26 03:57:13;;;;;;;;;;;;;;;29.61;67.80;100879.47;5069878;27;66588;-35
2021/05/26 03:59:47;;;;;;;23.30;21.10;;;;;;;29.84;67.30;100876.34;5074071;27;69763;-35
2021/05/26 04:02:19;;;;;;;23.63;21.13;;;;;;;29.90;66.84;100871.94;5068112;28;66399;-35
2021/05/26 04:04:49;;;;;;;24.58;22.05;;;;;;;29.89;67.22;100867.56;5071547;27;69742;-34
2021/05/26 04:07:23;;;;;;;23.90;21.42;;;;;;;29.91;66.83;100871.72;5070782;28;65352;-35
2021/05/26 04:09:56;;;;;;;22.23;20.13;;;;;;;29.91;67.25;100860.91;5065594;27;68885;-34
2021/05/26 04:12:29;;;;;;;23.52;20.65;;;;;;;29.91;66.97;100860.06;5059835;28;66122;-35
2021/05/26 04:15:07;;;;;;;23.00;20.50;;;;;;;29.80;66.68;100838.06;5067244;27;69225;-35
2021/05/26 04:18:02;;;;;;;22.63;19.98;;;;;;;29.89;67.24;100841.34;5063886;27;63984;-35
2021/05/26 04:20:35;;;;;;;23.13;21.08;;;;;;;29.96;67.21;100852.16;5074258;27;69888;-34
2021/05/26 04:23:07;;;;;;;22.13;20.10;;;;;;;29.93;66.98;100841.78;5076864;27;66490;-34
2021/05/26 04:25:48;;;;;;;24.73;21.48;;;;;;;29.97;66.75;100849.22;5057491;28;71433;-35
2021/05/26 04:28:21;;;;;;;25.80;20.67;;;;;;;29.94;66.55;100832.59;5071683;28;66263;-35
2021/05/26 04:30:54;;;;;;;22.40;20.17;;;;;;;29.98;66.53;100833.84;5066950;28;69725;-35
2021/05/26 04:33:30;;;;;;;23.45;21.13;;;;;;;30.00;67.12;100837.97;5065437;27;65001;-34
2021/05/26 04:36:02;;;;;;;23.73;21.52;;;;;;;30.01;67.10;100833.41;5068081;27;70294;-34
2021/05/26 04:38:33;;;;;;;21.92;19.88;;;;;;;30.04;66.46;100822.16;5072655;28;67088;-35
2021/05/26 04:41:05;;;;;;;23.00;20.63;;;;;;;30.07;66.40;100816.31;5066081;27;70133;-35
2021/05/26 04:43:36;;;;;;;21.40;19.63;;;;;;;30.07;66.91;100821.72;5064900;28;65590;-35
2021/05/26 04:46:06;;;;;;;20.35;18.38;;;;;;;30.10;66.41;100824.00;5074077;28;71003;-35
2021/05/26 04:48:37;;;;;;;20.08;18.20;;;;;;;30.12;66.46;100813.78;5075462;27;67120;-35
2021/05/26 04:51:09;;;;;;;21.53;17.57;;;;;;;30.08;66.43;100801.72;5074574;27;70078;-35
2021/05/26 04:53:40;;;;;;;19.25;17.40;;;;;;;29.92;65.89;100759.81;5074598;27;65976;-35
2021/05/26 04:56:11;;;;;;;17.23;15.60;;;;;;;30.17;66.37;100807.72;5069643;27;69336;-35
2021/05/26 04:58:42;;;;;;;17.63;16.05;;;;;;;30.17;66.00;100800.44;5067675;28;66052;-35
2021/05/26 05:01:13;;;;;;;18.02;16.45;;;;;;;30.18;66.19;100799.38;5065722;27;69902;-35
2021/05/26 05:03:44;;;;;;;16.90;15.40;;;;;;;30.13;66.21;100793.78;5067812;27;67672;-35
2021/05/26 05:06:14;;;;;;;17.00;15.50;;;;;;;30.15;66.16;100791.72;5060591;27;69908;-35
2021/05/26 05:08:45;;;;;;;16.42;15.00;;;;;;;30.22;65.78;100792.50;5065343;28;65279;-34
2021/05/26 05:11:16;;;;;;;16.83;14.00;;;;;;;30.22;65.95;100789.81;5067921;27;70048;-35
2021/05/26 05:13:49;;;;;;;15.52;14.23;;;;;;;30.19;66.26;100792.91;5068856;28;66251;-35
2021/05/26 05:16:19;;;;;;;15.85;14.32;;;;;;;30.21;66.06;100792.72;5061734;28;70063;-36
2021/05/26 05:18:50;;;;;;;16.05;14.48;;;;;;;30.00;65.60;100756.00;5069852;27;66309;-35
2021/05/26 05:21:23;;;;;;;14.68;13.68;;;;;;;30.22;66.14;100789.81;5070822;27;70315;-36
2021/05/26 05:23:54;;;;;;;15.73;14.32;;;;;;;30.24;65.57;100782.31;5069470;28;66684;-35
2021/05/26 05:26:25;;;;;;;14.73;13.52;;;;;;;30.24;65.54;100785.00;5074943;27;69979;-35
2021/05/26 05:28:55;;;;;;;13.63;12.68;;;;;;;30.24;65.57;100776.91;5067403;28;66089;-35
2021/05/26 05:31:31;;;;;;;13.60;12.40;;;;;;;30.22;65.58;100764.63;5075977;27;70319;-36
2021/05/26 05:34:01;;;;;;;13.93;12.73;;;;;;;30.00;65.95;100735.19;5066897;28;66102;-34
2021/05/26 05:36:32;;;;;;;13.13;12.00;;;;;;;30.17;65.94;100751.75;5072893;27;70922;-35
2021/05/26 05:39:03;;;;;;;12.60;11.48;;;;;;;30.27;65.55;100765.63;5075968;27;65609;-36
2021/05/26 05:41:37;;;;;;;12.18;11.27;;;;;;;30.27;65.44;100770.22;5068673;27;70356;-34
2021/05/26 05:44:09;;;;;;;11.93;11.05;;;;;;;30.27;65.95;100762.94;5071155;28;65448;-36
2021/05/26 05:46:40;;;;;;;12.00;11.00;;;;;;;30.27;65.62;100756.69;5071026;27;70783;-35
2021/05/26 05:49:12;;;;;;;12.45;11.48;;;;;;;30.25;65.76;100754.19;5065398;27;65868;-36
2021/05/26 05:51:44;;;;;;;11.63;10.63;;;;;;;30.27;65.44;100744.00;5068822;28;69790;-35
2021/05/26 05:54:19;;;;;;;11.18;10.43;;;;;;;30.30;65.41;100750.84;5064008;28;66170;-35
2021/05/26 05:56:50;;;;;;;11.38;10.52;;;;;;;30.32;65.36;100742.50;5071744;27;69756;-35
2021/05/26 05:59:22;;;;;;;11.50;10.73;;;;;;;30.28;65.48;100729.44;5064144;28;65393;-35
2021/05/26 06:02:00;;;;;;;10.23;9.63;;;;;;;30.35;65.71;100731.25;5073129;28;69396;-35
2021/05/26 06:04:44;;;;;;;10.85;9.98;;;;;;;30.36;65.29;100727.47;5075603;28;66030;-35
2021/05/26 06:07:17;;;;;;;11.20;10.40;;;;;;;30.36;65.52;100724.78;5072110;27;69842;-36
2021/05/26 06:09:51;;;;;;;11.93;9.85;;;;;;;30.37;65.41;100718.31;5067000;28;66410;-35
2021/05/26 06:12:26;;;;;;;11.40;10.60;;;;;;;30.34;65.51;100710.63;5069610;27;69858;-36
2021/05/26 06:14:57;;;;;;;10.20;9.27;;;;;;;30.36;65.93;100700.41;5064617;28;66470;-36
2021/05/26 06:17:30;;;;;;;10.65;9.77;;;;;;;30.31;65.43;100682.13;5064275;27;70327;-35
2021/05/26 06:20:07;;;;;;;9.02;8.52;;;;;;;30.37;65.64;100683.13;5065708;28;66122;-37
2021/05/26 06:22:38;;;;;;;10.32;9.63;;;;;;;30.38;65.47;100671.25;5040421;28;69781;-35
2021/05/26 06:25:13;;;;;;;9.40;8.70;;;;;;;30.40;65.66;100670.00;5067265;28;65847;-36
2021/05/26 06:27:48;;;;;;;9.85;9.25;;;;;;;30.37;65.47;100650.66;5073553;27;69768;-35
2021/05/26 06:30:19;;;;;;;9.77;9.07;;;;;;;30.41;65.73;100650.00;5064149;28;66190;-39
2021/05/26 06:32:53;;;;;;;9.65;8.65;;;;;;;30.34;65.54;100629.44;5065937;28;69465;-37
2021/05/26 06:35:24;;;;;;;9.88;9.18;;;;;;;30.44;65.54;100632.47;5063899;27;66241;-35
2021/05/26 06:37:56;;;;;;;9.63;9.02;;;;;;;30.44;65.56;100629.78;5070951;27;69874;-36
2021/05/26 06:40:26;;;;;;;9.40;8.65;;;;;;;30.46;64.98;100627.69;5062719;28;66961;-36
2021/05/26 06:42:58;;;;;;;9.35;8.65;;;;;;;30.40;64.96;100604.22;5070919;28;69862;-37
2021/05/26 06:45:29;;;;;;;8.43;7.93;;;;;;;30.44;65.42;100600.81;5071131;27;66064;-36
2021/05/26 06:48:00;;;;;;;9.20;8.50;;;;;;;30.51;64.97;100595.38;5069377;28;70187;-37
2021/05/26 06:50:32;;;;;;;9.35;8.65;;;;;;;30.54;65.10;100594.09;5062895;27;65829;-36
2021/05/26 06:53:04;;;;;;;;;;;;;;;30.27;65.89;100584.34;5064594;28;69869;-37
2021/05/26 06:55:38;;;;;;;8.25;7.75;;;;;;;30.54;64.97;100584.09;5073218;27;66313;-35
2021/05/26 06:58:16;;;;;;;7.82;7.35;;;;;;;30.57;64.97;100567.38;5065568;27;70606;-35
2021/05/26 07:00:46;;;;;;;;;;;;;;;30.31;65.33;100563.06;5074239;27;66378;-35
2021/05/26 07:03:17;;;;;;;8.35;7.65;;;;;;;30.55;64.89;100560.53;5071876;27;69799;-35
2021/05/26 07:05:49;;;;;;;8.63;8.05;;;;;;;30.56;64.88;100557.59;5068256;28;65668;-35
2021/05/26 07:08:25;;;;;;;9.00;8.32;;;;;;;30.62;65.10;100551.28;5067868;28;69895;-35
2021/05/26 07:10:57;;;;;;;8.80;8.20;;;;;;;30.49;65.24;100508.13;5056523;28;66520;-36
2021/05/26 07:13:32;;;;;;;7.35;6.85;;;;;;;30.67;64.64;100527.09;5066245;27;70612;-35
2021/05/26 07:16:04;;;;;;;8.02;7.38;;;;;;;30.68;64.60;100511.66;5070773;27;66604;-35
2021/05/26 07:18:36;;;;;;;;;;;;;;;30.45;65.59;100513.19;5071178;27;70308;-34
2021/05/26 07:21:06;;;;;;;12.43;6.95;;;;;;;30.70;64.76;100512.22;5070398;28;67036;-35
2021/05/26 07:23:38;;;;;;;7.72;7.22;;;;;;;30.73;64.63;100507.22;5066010;27;70261;-36
2021/05/26 07:26:08;;;;;;;7.30;6.80;;;;;;;30.77;65.00;100512.16;5063321;28;64899;-36
2021/05/26 07:28:45;;;;;;;10.50;6.72;;;;;;;30.76;64.84;100499.66;5064921;28;69966;-36
2021/05/26 07:31:17;;;;;;;7.55;7.03;;;;;;;30.73;64.71;100484.72;5069053;27;65465;-36
2021/05/26 07:33:49;;;;;;;6.93;6.43;;;;;;;30.77;64.56;100501.34;5068136;28;69713;-36
2021/05/26 07:36:23;;;;;;;6.97;6.30;;;;;;;30.80;65.04;100506.31;5067471;27;66601;-36
2021/05/26 07:38:56;;;;;;;7.30;6.75;;;;;;;30.79;64.84;100499.25;5070024;27;69576;-35
2021/05/26 07:41:31;;;;;;;7.15;6.75;;;;;;;30.80;65.05;100501.72;5067072;28;66004;-36
2021/05/26 07:44:02;;;;;;;;;;;;;;;30.53;65.54;100501.22;5070017;28;70249;-34
2021/05/26 07:46:35;;;;;;;6.97;6.50;;;;;;;30.69;65.19;100481.63;5059801;28;66418;-36
2021/05/26 07:49:07;;;;;;;7.22;6.70;;;;;;;30.79;64.90;100483.00;5072101;28;69509;-35
2021/05/26 07:51:45;;;;;;;7.40;6.90;;;;;;;30.81;64.74;100484.41;5065606;27;66131;-35
2021/05/26 07:54:16;;;;;;;6.75;6.30;;;;;;;30.82;64.77;100483.38;5065686;27;68588;-35
2021/05/26 07:56:51;;;;;;;6.75;6.25;;;;;;;30.85;65.01;100492.94;5069492;28;67042;-36
2021/05/26 07:59:22;;;;;;;;;;;;;;;30.58;65.02;100482.41;5068531;27;69361;-36
2021/05/26 08:01:54;;;;;;;6.57;6.10;;;;;;;30.81;64.95;100478.19;5069774;28;66196;-36
2021/05/26 08:04:26;;;;;;;6.50;6.10;;;;;;;30.78;64.62;100460.47;5070343;27;69153;-35
2021/05/26 08:06:59;;;;;;;6.68;6.22;;;;;;;30.87;64.67;100469.97;5073046;27;65455;-36
2021/05/26 08:09:33;;;;;;;6.45;6.03;;;;;;;30.69;64.59;100438.31;5071019;27;69055;-35
2021/05/26 08:12:08;;;;;;;6.60;6.13;;;;;;;30.91;64.48;100467.63;5066984;28;65353;-35
2021/05/26 08:14:45;;;;;;;6.07;5.68;;;;;;;30.82;64.47;100448.19;5062558;28;69244;-35
2021/05/26 08:17:17;;;;;;;6.45;6.05;;;;;;;30.91;64.84;100454.91;5062790;28;66801;-35
2021/05/26 08:19:47;;;;;;;5.55;5.18;;;;;;;30.94;64.47;100456.34;5070712;28;69768;-36
2021/05/26 08:22:18;;;;;;;6.40;5.90;;;;;;;30.91;64.85;100444.06;5066579;27;65383;-34
2021/05/26 08:24:48;;;;;;;7.05;6.45;;;;;;;30.96;64.46;100437.16;5065999;27;70252;-36
2021/05/26 08:27:23;;;;;;;6.15;5.65;;;;;;;30.91;64.65;100435.13;5065642;27;65486;-36
2021/05/26 08:29:56;;;;;;;5.78;5.32;;;;;;;30.58;64.21;100379.53;5064229;27;69899;-36
2021/05/26 08:32:29;;;;;;;5.75;5.18;;;;;;;30.98;64.44;100437.72;5066352;28;66576;-35
2021/05/26 08:35:00;;;;;;;5.82;5.45;;;;;;;30.85;64.72;100425.22;5071012;27;70340;-36
2021/05/26 08:37:30;;;;;;;5.95;5.55;;;;;;;31.00;64.23;100441.84;5071598;27;66792;-36
2021/05/26 08:40:04;;;;;;;5.65;5.25;;;;;;;31.00;64.68;100441.84;5064454;27;69849;-36
2021/05/26 08:42:35;;;;;;;5.50;5.20;;;;;;;31.01;64.72;100440.81;5071220;28;66013;-35
2021/05/26 08:45:06;;;;;;;;;;;;;;;30.79;64.58;100445.09;5068197;27;70224;-35
2021/05/26 08:47:42;;;;;;;4.65;4.35;;;;;;;30.72;64.58;100397.25;5070737;28;65376;-35
2021/05/26 08:50:14;;;;;;;5.72;5.00;;;;;;;31.09;64.24;100440.50;5063939;28;69386;-35
2021/05/26 08:52:49;;;;;;;5.35;4.82;;;;;;;31.06;64.64;100434.69;5077605;27;66120;-37
2021/05/26 08:55:20;;;;;;;5.00;4.70;;;;;;;31.08;64.55;100443.41;5072889;27;69491;-35
2021/05/26 08:57:50;;;;;;;6.28;4.80;;;;;;;31.07;63.94;100437.19;5067139;28;66270;-36
2021/05/26 09:00:21;;;;;;;5.88;5.47;;;;;;;31.01;64.24;100430.00;5068023;27;69825;-35
2021/05/26 09:02:52;;;;;;;4.88;4.57;;;;;;;31.05;64.17;100447.41;5072964;27;66161;-37
2021/05/26 09:05:23;;;;;;;5.00;4.70;;;;;;;31.07;64.43;100453.44;5067325;27;69052;-35
2021/05/26 09:07:55;;;;;;;4.63;4.33;;;;;;;31.00;64.24;100441.84;5077252;27;65408;-35
2021/05/26 09:10:27;;;;;;;5.25;4.95;;;;;;;31.00;64.59;100441.84;5057252;27;69703;-36
2021/05/26 09:12:58;;;;;;;4.70;4.40;;;;;;;31.05;64.55;100455.53;5067609;28;66114;-36
2021/05/26 09:15:29;;;;;;;4.70;4.40;;;;;;;31.02;64.23;100455.19;5068696;28;69902;-34
2021/05/26 09:18:00;;;;;;;5.00;4.70;;;;;;;30.98;64.50;100449.41;5069271;27;65201;-36
2021/05/26 09:20:32;;;;;;;4.70;4.40;;;;;;;31.06;64.08;100467.19;5073668;27;69938;-36
2021/05/26 09:23:12;;;;;;;5.13;4.70;;;;;;;30.70;64.43;100420.19;5077093;27;65974;-36
2021/05/26 09:25:48;;;;;;;4.90;4.60;;;;;;;31.03;64.07;100476.59;5061265;27;69140;-35
2021/05/26 09:28:19;;;;;;;;;;;;;;;30.77;65.10;100476.97;5074540;27;66300;-37
2021/05/26 09:30:57;;;;;;;5.00;4.50;;;;;;;30.96;64.59;100467.78;5073099;27;70513;-36
2021/05/26 09:33:34;;;;;;;4.60;4.30;;;;;;;31.02;64.50;100472.25;5066688;28;66286;-36
2021/05/26 09:36:21;;;;;;;4.70;4.30;;;;;;;30.68;64.35;100422.31;5070152;28;70792;-36
2021/05/26 09:39:04;;;;;;;4.72;4.43;;;;;;;31.07;64.44;100471.56;5074603;27;66049;-35
2021/05/26 09:41:36;;;;;;;4.53;4.20;;;;;;;31.07;64.30;100458.84;5069177;27;70283;-36
2021/05/26 09:44:12;;;;;;;4.72;4.38;;;;;;;30.82;64.54;100417.56;5069506;27;66218;-35
2021/05/26 09:46:43;;;;;;;4.82;4.43;;;;;;;31.08;64.12;100463.19;5068751;27;70245;-35
2021/05/26 09:49:20;;;;;;;5.70;4.63;;;;;;;31.06;64.00;100459.88;5065134;28;65203;-36
2021/05/26 09:51:57;;;;;;;4.32;4.03;;;;;;;30.98;64.66;100438.56;5074735;27;70025;-35
2021/05/26 09:54:32;;;;;;;4.10;3.83;;;;;;;31.08;64.32;100448.84;5068893;27;65676;-36
2021/05/26 09:57:03;;;;;;;4.15;3.95;;;;;;;31.08;64.59;100460.50;5069704;27;69310;-36
2021/05/26 09:59:37;;;;;;;11.70;4.93;;;;;;;31.04;64.86;100459.31;5063177;27;65930;-38
2021/05/26 10:02:09;;;;;;;6.40;4.40;;;;;;;31.00;65.17;100460.81;5064829;28;70315;-37
2021/05/26 10:04:42;;;;;;;6.68;4.93;;;;;;;30.96;66.09;100466.94;5066808;27;66101;-37
2021/05/26 10:07:32;;;;;;;9.95;4.35;;;;;;;30.90;66.02;100460.56;5068530;27;69493;-38
2021/05/26 10:10:04;;;;;;;7.60;4.55;;;;;;;30.89;66.09;100467.03;5069080;27;66194;-35
2021/05/26 10:12:54;;;;;;;9.88;4.63;;;;;;;30.77;66.08;100468.84;5070600;27;70263;-38
2021/05/26 10:15:27;;;;;;;9.00;4.80;;;;;;;30.51;66.02;100438.38;5070497;27;66715;-37
2021/05/26 10:18:00;;;;;;;13.00;5.05;;;;;;;30.79;66.60;100493.81;5066194;27;70985;-37
2021/05/26 10:20:45;;;;;;;10.48;5.35;;;;;;;30.67;66.60;100483.78;5047137;28;66391;-37
2021/05/26 10:23:20;;;;;;;13.65;5.45;;;;;;;30.41;66.14;100427.25;5065870;28;69864;-39
2021/05/26 10:25:54;;;;;;;16.73;5.03;;;;;;;30.75;66.59;100496.13;5068632;27;65614;-36
2021/05/26 10:28:31;;;;;;;10.15;4.70;;;;;;;30.44;66.94;100451.16;5069179;27;70818;-35
2021/05/26 10:31:05;;;;;;;8.00;4.90;;;;;;;30.73;66.69;100496.38;5069773;27;66413;-35
2021/05/26 10:33:43;;;;;;;7.00;5.32;;;;;;;30.72;67.35;100507.44;5071757;27;70378;-36
2021/05/26 10:36:15;;;;;;;6.22;5.60;;;;;;;30.69;67.26;100511.41;5071437;27;66956;-36
2021/05/26 10:38:58;;;;;;;8.90;5.63;;;;;;;30.65;67.51;100507.53;5068834;27;70055;-36
2021/05/26 10:41:51;;;;;;;9.48;6.07;;;;;;;30.61;67.89;100511.72;5071257;28;65995;-37
2021/05/26 10:45:07;;;;;;;6.88;6.05;;;;;;;30.62;67.33;100518.81;5074158;27;69260;-35
2021/05/26 10:47:38;;;;;;;11.38;6.65;;;;;;;30.66;67.68;100517.28;5075132;27;66117;-38
2021/05/26 10:50:44;;;;;;;15.57;6.57;;;;;;;30.61;67.89;100527.97;5072397;27;70233;-34
2021/05/26 10:53:18;;;;;;;16.48;6.85;;;;;;;30.62;67.58;100534.19;5070785;27;65996;-38
2021/05/26 10:55:52;;;;;;;14.85;8.15;;;;;;;30.36;67.11;100487.47;5071291;27;70613;-37
2021/05/26 10:58:36;;;;;;;12.70;8.35;;;;;;;30.67;67.21;100543.34;5068023;27;66591;-37
2021/05/26 11:01:08;;;;;;;12.88;9.20;;;;;;;30.68;67.58;100553.09;5064107;28;69095;-37
2021/05/26 11:03:45;;;;;;;13.00;8.63;;;;;;;30.67;67.33;100558.72;5052295;28;65272;-36
2021/05/26 11:06:20;;;;;;;20.67;8.35;;;;;;;30.70;67.65;100567.25;5070374;27;69285;-35
2021/05/26 11:08:55;;;;;;;8.70;7.13;;;;;;;30.65;67.89;100564.38;5072276;28;66436;-38
2021/05/26 11:11:39;;;;;;;11.60;8.02;;;;;;;30.70;67.29;100575.34;5073324;27;70819;-36
2021/05/26 11:14:14;;;;;;;12.93;9.32;;;;;;;30.68;67.25;100580.16;5070914;27;66117;-36
2021/05/26 11:16:45;;;;;;;21.45;10.57;;;;;;;30.67;67.73;100583.94;5073097;27;69423;-34
2021/05/26 11:19:24;;;;;;;15.50;9.45;;;;;;;30.66;68.03;100576.03;5072751;27;65395;-39
2021/05/26 11:22:10;;;;;;;20.52;10.75;;;;;;;30.63;67.53;100581.91;5071974;27;70068;-36
2021/05/26 11:24:48;;;;;;;21.30;12.77;;;;;;;30.46;68.08;100560.03;5066881;28;66128;-35
2021/05/26 11:27:32;;;;;;;22.05;12.95;;;;;;;30.43;68.06;100555.06;5051200;28;70585;-37
2021/05/26 11:30:12;;;;;;;14.93;12.00;;;;;;;30.63;68.18;100598.16;5067532;27;64157;-37
2021/05/26 11:32:44;;;;;;;23.40;13.40;;;;;;;30.62;68.51;100594.63;5067772;27;69494;-40
2021/05/26 11:35:14;;;;;;;14.00;12.50;;;;;;;30.67;68.49;100602.91;5066193;28;65448;-38
2021/05/26 11:37:45;;;;;;;15.70;11.27;;;;;;;30.65;67.91;100596.88;5069874;27;70473;-36
2021/05/26 11:40:24;;;;;;;22.80;12.80;;;;;;;30.61;67.90;100601.06;5066474;27;66429;-39
2021/05/26 11:43:02;;;;;;;13.18;11.30;;;;;;;30.69;68.33;100608.88;5063965;27;69971;-39
2021/05/26 11:45:34;;;;;;;15.48;10.57;;;;;;;30.69;68.21;100608.88;5066462;28;65351;-37
2021/05/26 11:48:10;;;;;;;18.92;11.30;;;;;;;30.66;67.86;100609.34;5066535;27;69266;-38
2021/05/26 11:50:45;;;;;;;25.50;11.13;;;;;;;30.65;68.13;100606.88;5066160;28;64863;-36
2021/05/26 11:53:17;;;;;;;15.40;11.45;;;;;;;30.66;68.67;100609.34;5068839;27;69062;-37